Latest Weather Observations for Archerfield

IDQ60801

Issued at 1:42 pm EST Monday 27 January 2020 (issued every 10 minutes, with the page automatically refreshed every 10 minutes)

About weather observations | Map of weather stations | Latest weather observations for QLD | Other Formats
Station Details ID: 040211 Name: ARCHERFIELD AIRPORT Lat: -27.57 Lon: 153.01 Height: 12.5 m
Data from the previous 72 hours. | See also: Recent months at Archerfield
Date/Time
EST
Temp
°C
App
Temp
°C
Dew
Point
°C
Rel
Hum
%
Delta-T
°C
Wind Press
QNH
hPa
Press
MSL
hPa
Rain since
9am
mm
Dir  Spd
km/h
Gust
km/h
Spd
kts
Gust
kts
27/01:30pm 29.6 28.0 18.4 51 7.2 NNE 24 33 13 18 1012.7 1012.6 0.0
27/01:00pm 29.5 28.2 17.3 47 7.7 NE 20 30 11 16 1013.2 1013.1 0.0
27/12:30pm 29.6 29.0 18.4 51 7.2 NNE 19 28 10 15 1013.4 1013.3 0.0
27/12:00pm 29.8 29.8 18.9 52 7.1 NE 17 26 9 14 1013.7 1013.6 0.0
27/11:30am 28.7 28.5 18.5 54 6.5 NE 17 26 9 14 1014.0 1013.9 0.0
27/11:00am 29.5 29.2 18.3 51 7.2 ENE 17 24 9 13 1014.3 1014.2 0.0
27/10:30am 29.2 30.0 19.8 57 6.2 NE 15 22 8 12 1014.6 1014.5 0.0
27/10:00am 28.5 29.0 19.2 57 6.0 NNE 15 20 8 11 1014.7 1014.6 0.0
27/09:30am 28.4 29.5 19.6 59 5.7 NE 13 19 7 10 1014.7 1014.6 0.0
27/09:00am 27.9 28.5 19.4 60 5.5 NE 15 22 8 12 1014.7 1014.6 1.8
27/08:30am 27.8 29.0 19.8 61 5.2 NE 13 19 7 10 1014.6 1014.5 1.8
27/08:00am 26.1 27.6 19.7 68 4.1 ENE 11 17 6 9 1014.5 1014.4 1.8
27/07:30am 26.6 28.2 20.0 67 4.3 E 11 17 6 9 1014.3 1014.2 1.8
27/07:00am 25.8 27.8 20.8 74 3.3 E 11 13 6 7 1014.0 1013.9 1.8
27/06:30am 24.9 28.4 21.8 83 2.1 SSE 6 7 3 4 1014.0 1013.9 1.8
27/06:00am 23.8 28.4 21.7 88 1.4 CALM 0 0 0 0 1013.6 1013.5 1.8
27/05:30am 23.1 27.1 21.4 90 1.1 S 2 7 1 4 1013.3 1013.2 1.8
27/05:00am 23.1 27.3 21.0 88 1.4 CALM 0 0 0 0 1013.0 1012.9 1.8
27/04:30am 23.3 26.4 21.4 89 1.3 SSE 7 9 4 5 1013.0 1012.9 1.8
27/04:00am 23.2 25.5 21.3 89 1.2 SSE 11 15 6 8 1012.7 1012.6 1.8
27/03:30am 23.4 25.7 21.3 88 1.4 S 11 15 6 8 1012.9 1012.8 1.4
27/03:00am 23.5 26.2 21.4 88 1.4 S 9 13 5 7 1012.7 1012.6 1.4
27/02:30am 23.5 26.5 21.2 87 1.5 S 7 9 4 5 1012.9 1012.8 1.4
27/02:00am 23.7 27.1 21.6 88 1.4 SSE 6 7 3 4 1013.0 1012.9 1.4
27/01:30am 23.5 26.9 21.6 89 1.3 S 6 7 3 4 1013.5 1013.4 1.4
27/01:00am 23.5 26.7 21.6 89 1.3 SSE 7 9 4 5 1013.7 1013.6 1.4
27/12:30am 24.0 28.6 21.7 87 1.5 CALM 0 0 0 0 1014.1 1014.0 1.4
27/12:00am 23.6 27.8 20.9 85 1.8 CALM 0 6 0 3 1014.4 1014.3 1.4
 
Date/Time
EST
Temp
°C
App
Temp
°C
Dew
Point
°C
Rel
Hum
%
Delta-T
°C
Wind Press
QNH
hPa
Press
MSL
hPa
Rain since
9am
mm
Dir  Spd
km/h
Gust
km/h
Spd
kts
Gust
kts
26/11:47pm 23.5 25.9 20.8 85 1.8 NE 9 13 5 7 1014.6 1014.5 1.4
26/11:30pm 23.4 23.7 20.5 84 1.9 NE 19 28 10 15 1014.9 1014.8 1.2
26/11:24pm 23.7 24.3 20.2 81 2.3 ENE 17 28 9 15 1015.0 1014.9 0.8
26/11:00pm 25.4 27.3 20.6 75 3.1 ESE 11 15 6 8 1015.0 1014.9 0.0
26/10:30pm 25.5 27.3 20.3 73 3.4 ENE 11 15 6 8 1014.9 1014.8 0.0
26/10:00pm 25.9 27.2 20.2 71 3.7 ENE 13 19 7 10 1015.0 1014.9 0.0
26/09:30pm 25.9 27.5 20.7 73 3.4 ENE 13 19 7 10 1015.0 1014.9 0.0
26/09:00pm 25.8 27.3 20.6 73 3.4 ENE 13 19 7 10 1014.8 1014.7 0.0
26/08:30pm 25.9 25.8 19.5 68 4.1 ENE 19 26 10 14 1014.3 1014.2 0.0
26/08:00pm 26.0 27.0 20.3 71 3.7 ENE 15 22 8 12 1013.9 1013.8 0.0
26/07:30pm 26.0 26.3 19.6 68 4.1 NE 17 24 9 13 1013.5 1013.4 0.0
26/07:00pm 26.3 25.7 19.7 67 4.3 NE 22 30 12 16 1013.3 1013.2 0.0
26/06:30pm 26.5 26.2 20.3 68 4.1 NE 22 30 12 16 1013.0 1012.9 0.0
26/06:00pm 27.1 27.4 20.4 66 4.4 NE 19 26 10 14 1012.8 1012.7 0.0
26/05:30pm 27.7 26.9 20.0 63 5.0 ENE 24 35 13 19 1012.4 1012.3 0.0
26/05:00pm 27.9 26.6 19.9 61 5.2 NE 26 32 14 17 1012.2 1012.1 0.0
26/04:30pm 27.4 25.8 19.2 61 5.3 NE 26 33 14 18 1012.3 1012.2 0.0
26/04:00pm 28.6 27.7 19.8 59 5.8 NE 24 32 13 17 1012.2 1012.1 0.0
26/03:30pm 28.7 27.8 19.9 59 5.8 NE 24 35 13 19 1012.6 1012.5 0.0
26/03:00pm 28.8 28.3 20.0 59 5.8 ENE 22 32 12 17 1012.6 1012.5 0.0
26/02:30pm 28.8 29.0 20.5 61 5.5 ENE 20 28 11 15 1012.8 1012.7 0.0
26/02:00pm 29.3 29.3 20.2 58 6.0 NE 20 32 11 17 1013.2 1013.1 0.0
26/01:30pm 28.7 28.9 20.2 60 5.6 NE 19 26 10 14 1013.3 1013.2 0.0
26/01:00pm 28.6 28.6 20.1 60 5.6 NE 20 28 11 15 1013.8 1013.7 0.0
26/12:30pm 28.6 27.4 20.1 60 5.6 NE 26 32 14 17 1014.0 1013.9 0.0
26/12:00pm 28.0 26.8 20.8 65 4.8 NE 28 41 15 22 1014.2 1014.1 0.0
26/11:30am 29.8 31.0 21.5 61 5.6 NE 17 22 9 12 1014.2 1014.1 0.0
26/11:00am 29.6 29.6 20.2 57 6.2 ENE 20 30 11 16 1014.4 1014.3 0.0
26/10:30am 28.0 29.8 21.1 66 4.6 NE 13 19 7 10 1014.5 1014.4 0.0
26/10:00am 27.3 29.1 21.8 72 3.7 ENE 15 17 8 9 1014.7 1014.6 0.0
26/09:30am 27.6 28.2 20.2 64 4.8 NNE 17 24 9 13 1014.7 1014.6 0.0
26/09:00am 27.6 28.5 20.9 67 4.4 NNE 17 22 9 12 1014.7 1014.6 0.0
26/08:30am 27.2 29.1 20.5 67 4.4 N 11 20 6 11 1014.7 1014.6 0.0
26/08:00am 28.1 31.1 22.6 72 3.7 E 11 19 6 10 1014.6 1014.5 0.0
26/07:30am 26.6 29.4 21.6 74 3.3 E 9 15 5 8 1014.7 1014.6 0.0
26/07:00am 24.8 27.8 21.3 81 2.3 SE 7 11 4 6 1014.5 1014.4 0.0
26/06:30am 24.1 28.4 22.0 88 1.4 S 2 7 1 4 1014.1 1014.0 0.0
26/06:00am 23.3 27.1 21.6 90 1.1 SSE 4 7 2 4 1013.9 1013.8 0.0
26/05:30am 23.0 25.3 21.3 90 1.1 SSE 11 13 6 7 1013.5 1013.4 0.0
26/05:00am 23.0 25.3 21.3 90 1.1 SSE 11 13 6 7 1013.3 1013.2 0.0
26/04:30am 22.9 25.5 21.2 90 1.1 S 9 9 5 5 1013.1 1013.0 0.0
26/04:00am 23.0 25.9 21.1 89 1.2 S 7 9 4 5 1013.0 1012.9 0.0
26/03:30am 23.7 26.7 21.2 86 1.6 SE 7 9 4 5 1012.8 1012.7 0.0
26/03:00am 23.8 27.7 21.1 85 1.8 ESE 2 7 1 4 1012.7 1012.6 0.0
26/02:30am 24.3 27.3 21.2 83 2.0 E 7 9 4 5 1012.8 1012.7 0.0
26/02:00am 24.7 27.8 21.4 82 2.2 E 7 9 4 5 1013.0 1012.9 0.0
26/01:30am 24.5 27.4 21.0 81 2.3 E 7 9 4 5 1013.4 1013.3 0.0
26/01:00am 24.7 27.7 21.2 81 2.3 E 7 9 4 5 1013.7 1013.6 0.0
26/12:30am 24.4 26.8 20.9 81 2.3 ENE 9 11 5 6 1013.8 1013.7 0.0
26/12:00am 25.0 28.0 21.3 80 2.4 E 7 9 4 5 1014.3 1014.2 0.0
 
Date/Time
EST
Temp
°C
App
Temp
°C
Dew
Point
°C
Rel
Hum
%
Delta-T
°C
Wind Press
QNH
hPa
Press
MSL
hPa
Rain since
9am
mm
Dir  Spd
km/h
Gust
km/h
Spd
kts
Gust
kts
25/11:30pm 25.1 28.4 21.4 80 2.4 NE 6 7 3 4 1014.4 1014.3 0.0
25/11:00pm 24.9 27.5 21.2 80 2.4 NE 9 11 5 6 1014.4 1014.3 0.0
25/10:30pm 25.5 27.8 21.4 78 2.7 NE 11 15 6 8 1014.2 1014.1 0.0
25/10:00pm 25.7 28.5 21.6 78 2.7 NE 9 11 5 6 1014.3 1014.2 0.0
25/09:30pm 25.9 28.3 21.6 77 2.9 NE 11 15 6 8 1014.2 1014.1 0.0
25/09:00pm 25.8 28.0 21.2 76 3.0 ENE 11 13 6 7 1013.8 1013.7 0.0
25/08:30pm 25.9 29.1 21.6 77 2.9 NE 7 11 4 6 1013.6 1013.5 0.0
25/08:00pm 26.2 27.8 21.4 75 3.2 NE 15 20 8 11 1013.4 1013.3 0.0
25/07:30pm 26.4 27.2 21.4 74 3.3 NE 19 24 10 13 1013.2 1013.1 0.0
25/07:00pm 26.6 28.3 21.6 74 3.3 ENE 15 20 8 11 1013.0 1012.9 0.0
25/06:30pm 26.7 28.4 21.7 74 3.3 ENE 15 22 8 12 1012.8 1012.7 0.0
25/06:00pm 26.8 27.4 21.3 72 3.7 ENE 20 28 11 15 1012.0 1011.9 0.0
25/05:30pm 27.1 27.7 21.4 71 3.8 ENE 20 28 11 15 1011.6 1011.5 0.0
25/05:00pm 27.3 28.8 21.3 69 4.0 ENE 15 20 8 11 1011.9 1011.8 0.0
25/04:30pm 27.5 28.5 22.2 73 3.6 ENE 20 28 11 15 1011.9 1011.8 0.0
25/04:00pm 27.6 29.5 22.8 75 3.3 ENE 17 22 9 12 1012.0 1011.9 0.0
25/03:30pm 27.4 28.8 22.8 76 3.1 ENE 20 26 11 14 1012.0 1011.9 0.0
25/03:00pm 27.9 29.1 22.2 71 3.8 NE 19 24 10 13 1012.0 1011.9 0.0
25/02:30pm 28.0 28.6 21.1 66 4.6 NE 19 24 10 13 1012.1 1012.0 0.0
25/02:00pm 28.2 28.2 21.0 65 4.8 NNE 22 32 12 17 1012.2 1012.1 0.0
25/01:30pm 28.8 28.3 20.8 62 5.3 NNE 24 30 13 16 1012.0 1011.9 0.0
25/01:00pm 29.5 29.7 22.0 64 5.1 NNE 24 32 13 17 1012.1 1012.0 0.0
25/12:30pm 30.5 29.7 21.6 59 6.0 NE 28 37 15 20 1012.1 1012.0 0.0
25/12:00pm 30.5 30.7 22.1 61 5.7 NNE 24 33 13 18 1012.6 1012.5 0.0
25/11:30am 30.3 30.7 22.5 63 5.3 NNE 24 35 13 19 1012.7 1012.6 0.0
25/11:00am 29.7 30.2 22.7 66 4.8 NNE 24 33 13 18 1012.7 1012.6 0.0
25/10:30am 29.6 30.9 23.3 69 4.3 NNE 22 28 12 15 1013.0 1012.9 0.0
25/10:00am 29.8 32.6 23.7 70 4.2 NNE 15 22 8 12 1013.1 1013.0 0.0
25/09:30am 28.6 31.1 23.1 72 3.8 NNE 15 20 8 11 1013.1 1013.0 0.0
25/09:00am 28.4 31.0 23.3 74 3.5 N 15 20 8 11 1012.9 1012.8 0.0
25/08:30am 28.4 31.3 23.1 73 3.6 NNE 13 17 7 9 1012.6 1012.5 0.0
25/08:00am 28.0 31.0 23.4 76 3.2 N 13 19 7 10 1012.6 1012.5 0.0
25/07:30am 27.7 31.4 23.3 77 3.0 N 9 13 5 7 1012.4 1012.3 0.0
25/07:24am 27.5 30.9 23.3 78 2.9 N 11 17 6 9 1012.3 1012.2 0.0
25/07:07am 27.3 31.0 23.3 79 2.7 N 9 13 5 7 1012.4 1012.3 0.0
25/07:00am 26.8 30.0 23.1 80 2.5 N 11 13 6 7 1012.4 1012.3 0.0
25/06:30am 26.7 29.4 22.8 79 2.6 N 13 17 7 9 1012.4 1012.3 0.0
25/06:00am 25.9 30.1 23.2 85 1.8 N 6 9 3 5 1012.0 1011.9 0.0
25/05:30am 25.6 30.0 23.5 88 1.4 NW 6 9 3 5 1011.6 1011.5 0.0
25/05:00am 25.7 28.5 23.0 85 1.8 N 13 17 7 9 1011.2 1011.1 0.0
25/04:30am 26.0 28.7 22.9 83 2.1 NNW 13 17 7 9 1011.1 1011.0 0.0
25/04:00am 26.1 29.7 23.0 83 2.1 NNW 9 15 5 8 1011.2 1011.1 0.0
25/03:30am 26.1 29.9 22.8 82 2.2 NNW 7 9 4 5 1010.9 1010.8 0.0
25/03:00am 26.3 29.4 22.8 81 2.4 N 11 13 6 7 1010.9 1010.8 0.0
25/02:30am 26.2 29.8 23.1 83 2.1 N 9 13 5 7 1010.8 1010.7 0.0
25/02:00am 26.4 29.6 23.1 82 2.2 N 11 15 6 8 1010.8 1010.7 0.0
25/01:30am 26.4 28.8 22.9 81 2.4 NNE 15 19 8 10 1010.8 1010.7 0.0
25/01:00am 26.4 29.1 22.9 81 2.4 NNE 13 17 7 9 1011.2 1011.1 0.0
25/12:30am 26.2 29.2 22.7 81 2.4 NNE 11 17 6 9 1011.4 1011.3 0.0
25/12:00am 26.3 28.9 22.6 80 2.5 NNE 13 17 7 9 1011.6 1011.5 0.0
 
Date/Time
EST
Temp
°C
App
Temp
°C
Dew
Point
°C
Rel
Hum
%
Delta-T
°C
Wind Press
QNH
hPa
Press
MSL
hPa
Rain since
9am
mm
Dir  Spd
km/h
Gust
km/h
Spd
kts
Gust
kts
24/11:30pm 26.5 29.1 22.6 79 2.6 NNE 13 17 7 9 1011.6 1011.5 0.0
24/11:00pm 26.6 27.9 22.4 78 2.8 NNE 19 24 10 13 1011.6 1011.5 0.0
24/10:30pm 26.6 27.8 22.2 77 3.0 NNE 19 26 10 14 1011.5 1011.4 0.0
24/10:00pm 26.8 27.8 22.2 76 3.1 NNE 20 26 11 14 1011.5 1011.4 0.0
24/09:30pm 26.9 28.0 22.3 76 3.1 NNE 20 28 11 15 1011.6 1011.5 0.0
24/09:00pm 26.7 28.0 22.3 77 3.0 NNE 19 22 10 12 1011.4 1011.3 0.0
24/08:30pm 26.8 28.4 22.2 76 3.1 NNE 17 24 9 13 1011.2 1011.1 0.0
24/08:00pm 27.1 27.5 22.5 76 3.1 NNE 24 35 13 19 1010.5 1010.4 0.0
24/07:30pm 27.3 27.7 22.5 75 3.2 NNE 24 32 13 17 1010.0 1009.9 0.0
24/07:00pm 27.5 28.9 22.9 76 3.1 NNE 20 28 11 15 1009.9 1009.8 0.0
24/06:30pm 27.9 28.4 22.6 73 3.6 NNE 24 32 13 17 1009.8 1009.7 0.0
24/06:00pm 28.2 29.1 22.7 72 3.7 NNE 22 30 12 16 1009.5 1009.4 0.0
24/05:30pm 28.5 29.2 23.0 72 3.8 NNE 24 32 13 17 1009.1 1009.0 0.0
24/05:00pm 28.7 28.5 22.7 70 4.1 NNE 28 35 15 19 1008.8 1008.7 0.0
24/04:30pm 29.6 29.2 23.1 68 4.5 NNE 30 37 16 20 1008.8 1008.7 0.0
24/04:00pm 29.7 29.8 23.2 68 4.5 NNE 28 35 15 19 1008.6 1008.5 0.0
24/03:30pm 30.3 30.4 23.2 65 4.9 NNE 28 33 15 18 1008.7 1008.6 0.0
24/03:00pm 31.3 32.3 24.2 66 5.0 NNE 26 35 14 19 1009.1 1009.0 0.0
24/02:30pm 31.1 32.2 23.7 64 5.1 NNE 24 30 13 16 1009.3 1009.2 0.0
24/02:00pm 31.2 32.8 23.8 64 5.1 NNE 22 30 12 16 1009.6 1009.5 0.0

Other formats

Comma delimited format used in spreadsheet applications
http://www.bom.gov.au/fwo/IDQ60801/IDQ60801.94575.axf

JavaScript Object Notation format (JSON) in row-major order
http://www.bom.gov.au/fwo/IDQ60801/IDQ60801.94575.json

Data quality

Most of these data are generated automatically and are frequently updated. Quality checks on data are not normally performed. It is possible for incorrect values to appear. Refer to information at About Latest Weather Observations and please check the disclaimer before using these data.